Terminal Aerodrome Forecast
Issued by NWS Jackson, KY

Home | Current Version | Previous Version | Text Only | Print | Product List | Glossary On
Versions: 1 2 3 4 5 6 7 8 9 10 11 12 13 14 15 16 17
000
FTUS43 KJKL 221123
TAFLOZ
TAF
KLOZ 221123Z 2212/2312 34004KT P6SM BKN020 BKN050
     FM221300 35004KT P6SM SCT120
     FM230500 00000KT P6SM BKN200=

USA.gov is the U.S. government's official web portal to all federal, state and local government web resources and services.